HTUR weather

Urambo Airport
Urambo, Tabora Region, Tanzania

Public forecast

Using degrees Celsius for public forecast. Weather courtesy of forecast.io.

METAR (pilot weather report)

Report is more than 2 hours old.

Closest report is Tabora Airport, 45.1 nm (83.4 km) E. Retrieved 2019/05/25 03:00 UTC (4 hours ago):

HTTB 250300Z 12005KT 9999 FEW016 BKN070 19/17 Q1018

TAF (pilot weather forecast)

Forecast is more than 12 hours old.

Closest forecast is Tabora Airport, 45.1 nm (83.4 km) E. Retrieved 2019/05/16 12:00 UTC (9 days ago):

TAF HTTB 161100Z 1612/1712 00000KT 9999 FEW024